Air Navigation Services of Czech Republic
Airport: LKPJ Updated:  03.12.2021 19:00:28  UTC
 METAR LKPJ 03.12. 19:00 ...
METAR LKPJ 031900Z AUTO VRB02KT 9999 FEW190/// M02/M06 Q1014=